createdAt,value
2023-01-05T00:00:04.260Z,11.17
2023-01-05T00:01:04.140Z,11.17
2023-01-05T00:02:04.394Z,11.17
2023-01-05T00:03:03.881Z,11.11
2023-01-05T00:04:04.510Z,11.25
2023-01-05T00:05:04.194Z,11.14
2023-01-05T00:06:03.678Z,11.15
2023-01-05T00:07:03.955Z,11.22
2023-01-05T00:08:04.228Z,11.19
2023-01-05T00:09:04.272Z,11.23
2023-01-05T00:10:04.369Z,11.23
2023-01-05T00:11:04.297Z,11.15
2023-01-05T00:12:04.312Z,11.19
2023-01-05T00:13:04.308Z,11.15
2023-01-05T00:14:04.319Z,11.17
2023-01-05T00:15:04.557Z,11.26
2023-01-05T00:16:04.301Z,11.17
2023-01-05T00:17:04.539Z,11.12
2023-01-05T00:18:04.402Z,11.22
2023-01-05T00:19:04.139Z,11.19
2023-01-05T00:20:04.433Z,11.11
2023-01-05T00:21:04.186Z,11.26
2023-01-05T00:22:04.187Z,11.18
2023-01-05T00:23:04.222Z,11.27
2023-01-05T00:24:04.491Z,11.23
2023-01-05T00:25:14.209Z,11.19
2023-01-05T00:26:04.543Z,11.15
2023-01-05T00:27:04.539Z,11.17
2023-01-05T00:28:04.287Z,11.14
2023-01-05T00:29:04.060Z,11.18
2023-01-05T00:30:04.665Z,11.17
2023-01-05T00:31:04.644Z,11.18
2023-01-05T00:32:04.778Z,11.29
2023-01-05T00:33:04.666Z,11.19
2023-01-05T00:34:04.711Z,11.25
2023-01-05T00:35:04.409Z,11.12
2023-01-05T00:36:04.683Z,11.29
2023-01-05T00:37:04.688Z,11.22
2023-01-05T00:38:04.443Z,11.22
2023-01-05T00:39:04.722Z,11.19
2023-01-05T00:40:04.462Z,11.26
2023-01-05T00:41:04.564Z,11.25
2023-01-05T00:42:04.812Z,11.18
2023-01-05T00:43:04.824Z,11.19
2023-01-05T00:44:04.804Z,11.14
2023-01-05T00:45:04.830Z,11.22
2023-01-05T00:46:04.920Z,11.15
2023-01-05T00:47:04.888Z,11.19
2023-01-05T00:48:04.392Z,11.18
2023-01-05T00:49:04.896Z,11.18
2023-01-05T00:50:04.947Z,11.19
2023-01-05T00:51:04.709Z,11.19
2023-01-05T00:52:05.006Z,11.19
2023-01-05T00:53:04.986Z,11.19
2023-01-05T00:54:05.009Z,11.19
2023-01-05T00:55:04.994Z,11.14
2023-01-05T00:56:05.002Z,11.15
2023-01-05T00:57:05.167Z,11.17
2023-01-05T00:58:05.051Z,11.18
2023-01-05T00:59:04.794Z,11.17
2023-01-05T01:00:05.171Z,11.17
2023-01-05T01:01:05.146Z,11.29
2023-01-05T01:02:05.595Z,11.23
2023-01-05T01:03:05.225Z,11.19
2023-01-05T01:04:05.123Z,11.25
2023-01-05T01:05:05.139Z,11.14
2023-01-05T01:06:05.132Z,11.14
2023-01-05T01:07:05.384Z,11.15
2023-01-05T01:08:05.400Z,11.19
2023-01-05T01:09:05.334Z,11.15
2023-01-05T01:10:05.376Z,11.15
2023-01-05T01:11:05.399Z,11.19
2023-01-05T01:12:05.412Z,11.22
2023-01-05T01:13:05.556Z,11.23
2023-01-05T01:14:05.040Z,11.17
2023-01-05T01:15:05.360Z,11.19
2023-01-05T01:16:05.313Z,11.19
2023-01-05T01:17:05.485Z,11.23
2023-01-05T01:18:04.840Z,11.25
2023-01-05T01:19:09.948Z,11.22
2023-01-05T01:20:05.409Z,11.27
2023-01-05T01:21:05.150Z,11.22
2023-01-05T01:22:05.411Z,11.23
2023-01-05T01:23:05.624Z,11.15
2023-01-05T01:24:05.394Z,11.19
2023-01-05T01:25:05.654Z,11.19
2023-01-05T01:26:05.414Z,11.17
2023-01-05T01:27:05.403Z,11.17
2023-01-05T01:28:05.653Z,11.15
2023-01-05T01:29:05.910Z,11.17
2023-01-05T01:30:05.726Z,11.22
2023-01-05T01:31:06.090Z,11.17
2023-01-05T01:32:05.445Z,11.18
2023-01-05T01:33:05.429Z,11.19
2023-01-05T01:34:05.445Z,11.17
2023-01-05T01:35:05.433Z,11.17
2023-01-05T01:36:05.671Z,11.22
2023-01-05T01:37:05.119Z,11.22
2023-01-05T01:38:05.455Z,11.18
2023-01-05T01:39:05.699Z,11.15
2023-01-05T01:40:05.692Z,11.15
2023-01-05T01:41:05.724Z,11.26
2023-01-05T01:42:05.738Z,11.26
2023-01-05T01:43:05.742Z,11.25
2023-01-05T01:44:05.261Z,11.29
2023-01-05T01:45:05.640Z,11.19
2023-01-05T01:46:06.051Z,11.26
2023-01-05T01:47:05.536Z,11.27
2023-01-05T01:48:05.813Z,11.22
2023-01-05T01:49:05.601Z,11.26
2023-01-05T01:50:05.622Z,11.32
2023-01-05T01:51:12.561Z,11.29
2023-01-05T01:52:05.923Z,11.23
2023-01-05T01:53:05.621Z,11.25
2023-01-05T01:54:05.919Z,11.26
2023-01-05T01:55:05.681Z,11.27
2023-01-05T01:56:05.960Z,11.17
2023-01-05T01:57:05.693Z,11.29
2023-01-05T01:58:05.731Z,11.17
2023-01-05T01:59:05.731Z,11.32
2023-01-05T02:00:05.488Z,11.26
2023-01-05T02:01:06.505Z,11.22
2023-01-05T02:02:06.500Z,11.25
2023-01-05T02:03:06.066Z,11.3
2023-01-05T02:04:05.982Z,11.27
2023-01-05T02:05:05.882Z,11.19
2023-01-05T02:06:05.850Z,11.23
2023-01-05T02:07:06.122Z,11.32
2023-01-05T02:08:06.143Z,11.27
2023-01-05T02:09:06.152Z,11.27
2023-01-05T02:10:05.897Z,11.27
2023-01-05T02:11:05.928Z,11.23
2023-01-05T02:12:06.213Z,11.22
2023-01-05T02:13:05.975Z,11.26
2023-01-05T02:14:06.246Z,11.29
2023-01-05T02:15:06.254Z,11.25
2023-01-05T02:16:06.287Z,11.26
2023-01-05T02:17:06.616Z,11.26
2023-01-05T02:18:06.316Z,11.26
2023-01-05T02:19:06.321Z,11.27
2023-01-05T02:20:06.341Z,11.26
2023-01-05T02:21:08.999Z,11.26
2023-01-05T02:22:06.362Z,11.27
2023-01-05T02:23:06.130Z,11.23
2023-01-05T02:24:06.155Z,11.23
2023-01-05T02:25:06.181Z,11.27
2023-01-05T02:26:06.186Z,11.29
2023-01-05T02:27:06.461Z,11.27
2023-01-05T02:28:06.216Z,11.35
2023-01-05T02:29:06.225Z,11.35
2023-01-05T02:30:06.250Z,11.35
2023-01-05T02:31:06.689Z,11.3
2023-01-05T02:32:06.257Z,11.32
2023-01-05T02:33:06.600Z,11.32
2023-01-05T02:34:06.659Z,11.32
2023-01-05T02:35:06.565Z,11.33
2023-01-05T02:36:06.584Z,11.23
2023-01-05T02:37:06.626Z,11.35
2023-01-05T02:38:06.612Z,11.25
2023-01-05T02:39:06.379Z,11.36
2023-01-05T02:40:06.676Z,11.32
2023-01-05T02:41:06.430Z,11.35
2023-01-05T02:42:06.430Z,11.33
2023-01-05T02:43:06.695Z,11.32
2023-01-05T02:44:06.717Z,11.29
2023-01-05T02:45:06.493Z,11.35
2023-01-05T02:46:06.705Z,11.35
2023-01-05T02:47:06.541Z,11.26
2023-01-05T02:48:06.532Z,11.26
2023-01-05T02:49:06.844Z,11.27
2023-01-05T02:50:06.843Z,11.35
2023-01-05T02:51:06.845Z,11.35
2023-01-05T02:52:06.584Z,11.33
2023-01-05T02:53:06.858Z,11.33
2023-01-05T02:54:06.885Z,11.29
2023-01-05T02:55:06.894Z,11.32
2023-01-05T02:56:06.924Z,11.33
2023-01-05T02:57:06.962Z,11.33
2023-01-05T02:58:06.940Z,11.36
2023-01-05T02:59:06.962Z,11.3
2023-01-05T03:00:06.973Z,11.33
2023-01-05T03:01:07.307Z,11.27
2023-01-05T03:02:07.631Z,11.29
2023-01-05T03:03:07.386Z,11.29
2023-01-05T03:04:07.041Z,11.25
2023-01-05T03:05:07.123Z,11.32
2023-01-05T03:06:07.218Z,11.25
2023-01-05T03:07:07.118Z,11.3
2023-01-05T03:08:07.010Z,11.3
2023-01-05T03:09:06.600Z,11.27
2023-01-05T03:10:07.186Z,11.27
2023-01-05T03:11:07.151Z,11.35
2023-01-05T03:12:07.159Z,11.35
2023-01-05T03:13:06.929Z,11.36
2023-01-05T03:14:07.221Z,11.33
2023-01-05T03:15:07.221Z,11.33
2023-01-05T03:16:07.487Z,11.33
2023-01-05T03:17:07.283Z,11.32
2023-01-05T03:18:07.289Z,11.35
2023-01-05T03:19:07.031Z,11.27
2023-01-05T03:20:07.300Z,11.36
2023-01-05T03:21:07.351Z,11.32
2023-01-05T03:22:07.363Z,11.27
2023-01-05T03:23:06.869Z,11.33
2023-01-05T03:24:07.107Z,11.27
2023-01-05T03:25:07.128Z,11.25
2023-01-05T03:26:07.384Z,11.33
2023-01-05T03:27:07.409Z,11.3
2023-01-05T03:28:07.162Z,11.33
2023-01-05T03:29:07.179Z,11.36
2023-01-05T03:30:07.477Z,11.32
2023-01-05T03:31:08.051Z,11.3
2023-01-05T03:32:07.502Z,11.32
2023-01-05T03:33:07.249Z,11.36
2023-01-05T03:34:07.530Z,11.37
2023-01-05T03:35:07.284Z,11.3
2023-01-05T03:36:07.564Z,11.29
2023-01-05T03:37:07.622Z,11.4
2023-01-05T03:38:07.867Z,11.33
2023-01-05T03:39:07.353Z,11.33
2023-01-05T03:40:07.842Z,11.33
2023-01-05T03:41:07.878Z,11.33
2023-01-05T03:42:07.558Z,11.33
2023-01-05T03:43:07.663Z,11.3
2023-01-05T03:44:07.517Z,11.33
2023-01-05T03:45:07.726Z,11.3
2023-01-05T03:46:07.897Z,11.3
2023-01-05T03:47:07.761Z,11.32
2023-01-05T03:48:07.814Z,11.3
2023-01-05T03:49:07.814Z,11.32
2023-01-05T03:50:07.274Z,11.26
2023-01-05T03:51:07.836Z,11.25
2023-01-05T03:52:07.813Z,11.27
2023-01-05T03:53:07.630Z,11.3
2023-01-05T03:54:07.869Z,11.27
2023-01-05T03:55:07.608Z,11.29
2023-01-05T03:56:07.940Z,11.26
2023-01-05T03:57:07.642Z,11.33
2023-01-05T03:58:07.679Z,11.25
2023-01-05T03:59:07.663Z,11.32
2023-01-05T04:00:07.938Z,11.26
2023-01-05T04:01:07.972Z,11.23
2023-01-05T04:02:08.219Z,11.29
2023-01-05T04:03:08.204Z,11.27
2023-01-05T04:04:07.822Z,11.3
2023-01-05T04:05:08.024Z,11.3
2023-01-05T04:06:08.030Z,11.23
2023-01-05T04:07:07.787Z,11.26
2023-01-05T04:08:07.794Z,11.27
2023-01-05T04:09:08.125Z,11.25
2023-01-05T04:10:08.119Z,11.26
2023-01-05T04:11:07.835Z,11.32
2023-01-05T04:12:07.885Z,11.23
2023-01-05T04:13:08.140Z,11.26
2023-01-05T04:14:08.160Z,11.33
2023-01-05T04:15:08.170Z,11.29
2023-01-05T04:16:08.235Z,11.22
2023-01-05T04:17:08.215Z,11.26
2023-01-05T04:18:07.981Z,11.19
2023-01-05T04:19:08.231Z,11.3
2023-01-05T04:20:08.262Z,11.23
2023-01-05T04:21:08.265Z,11.18
2023-01-05T04:22:08.315Z,11.32
2023-01-05T04:23:08.071Z,11.27
2023-01-05T04:24:08.338Z,11.17
2023-01-05T04:25:08.404Z,11.18
2023-01-05T04:26:08.124Z,11.22
2023-01-05T04:27:08.097Z,11.25
2023-01-05T04:28:08.369Z,11.25
2023-01-05T04:29:08.122Z,11.22
2023-01-05T04:30:08.197Z,11.25
2023-01-05T04:31:08.909Z,11.17
2023-01-05T04:32:08.435Z,11.25
2023-01-05T04:33:08.446Z,11.19
2023-01-05T04:34:08.497Z,11.26
2023-01-05T04:35:15.548Z,11.17
2023-01-05T04:36:08.529Z,11.19
2023-01-05T04:37:08.514Z,11.15
2023-01-05T04:38:08.272Z,11.22
2023-01-05T04:39:08.295Z,11.18
2023-01-05T04:40:08.589Z,11.23
2023-01-05T04:41:08.635Z,11.22
2023-01-05T04:42:08.599Z,11.19
2023-01-05T04:43:08.707Z,11.23
2023-01-05T04:44:08.129Z,11.19
2023-01-05T04:45:08.398Z,11.18
2023-01-05T04:46:08.998Z,11.14
2023-01-05T04:47:08.674Z,11.23
2023-01-05T04:48:08.492Z,11.22
2023-01-05T04:49:08.711Z,11.19
2023-01-05T04:50:08.731Z,11.14
2023-01-05T04:51:08.482Z,11.14
2023-01-05T04:52:08.768Z,11.12
2023-01-05T04:53:08.795Z,11.17
2023-01-05T04:54:08.518Z,11.18
2023-01-05T04:55:08.577Z,11.19
2023-01-05T04:56:08.817Z,11.19
2023-01-05T04:57:08.868Z,11.15
2023-01-05T04:58:14.819Z,11.22
2023-01-05T04:59:09.881Z,11.14
2023-01-05T05:00:08.891Z,11.15
2023-01-05T05:01:09.166Z,11.23
2023-01-05T05:02:09.517Z,11.17
2023-01-05T05:03:09.169Z,11.14
2023-01-05T05:04:08.977Z,11.14
2023-01-05T05:05:08.971Z,11.19
2023-01-05T05:06:08.723Z,11.19
2023-01-05T05:07:08.756Z,11.18
2023-01-05T05:08:08.760Z,11.12
2023-01-05T05:09:09.052Z,11.17
2023-01-05T05:10:09.044Z,11.17
2023-01-05T05:11:09.059Z,11.25
2023-01-05T05:12:08.827Z,11.22
2023-01-05T05:13:09.139Z,11.25
2023-01-05T05:14:09.130Z,11.12
2023-01-05T05:15:09.133Z,11.12
2023-01-05T05:16:09.108Z,11.19
2023-01-05T05:17:08.634Z,11.25
2023-01-05T05:18:14.242Z,11.17
2023-01-05T05:19:09.339Z,11.18
2023-01-05T05:20:09.214Z,11.17
2023-01-05T05:21:09.233Z,11.19
2023-01-05T05:22:09.243Z,11.19
2023-01-05T05:23:09.277Z,11.19
2023-01-05T05:24:09.013Z,11.23
2023-01-05T05:25:09.017Z,11.19
2023-01-05T05:26:09.318Z,11.18
2023-01-05T05:27:09.305Z,11.18
2023-01-05T05:28:09.335Z,11.12
2023-01-05T05:29:09.399Z,11.19
2023-01-05T05:30:09.135Z,11.23
2023-01-05T05:31:09.896Z,11.19
2023-01-05T05:32:09.389Z,11.23
2023-01-05T05:33:09.198Z,11.25
2023-01-05T05:34:09.443Z,11.22
2023-01-05T05:35:09.453Z,11.17
2023-01-05T05:36:09.465Z,11.15
2023-01-05T05:37:09.249Z,11.19
2023-01-05T05:38:09.514Z,11.22
2023-01-05T05:39:09.239Z,11.22
2023-01-05T05:40:09.542Z,11.29
2023-01-05T05:41:09.582Z,11.25
2023-01-05T05:42:09.566Z,11.27
2023-01-05T05:43:09.071Z,11.22
2023-01-05T05:44:09.587Z,11.11
2023-01-05T05:45:09.671Z,11.26
2023-01-05T05:46:09.771Z,11.14
2023-01-05T05:47:09.815Z,11.18
2023-01-05T05:48:09.377Z,11.12
2023-01-05T05:49:09.688Z,11.23
2023-01-05T05:50:09.444Z,11.29
2023-01-05T05:51:09.686Z,11.25
2023-01-05T05:52:09.712Z,11.19
2023-01-05T05:53:09.469Z,11.15
2023-01-05T05:54:09.756Z,11.19
2023-01-05T05:55:09.509Z,11.25
2023-01-05T05:56:09.779Z,11.14
2023-01-05T05:57:09.805Z,11.23
2023-01-05T05:58:09.810Z,11.14
2023-01-05T05:59:09.851Z,11.18
2023-01-05T06:00:09.860Z,11.17
2023-01-05T06:01:10.130Z,11.19
2023-01-05T06:02:10.224Z,11.19
2023-01-05T06:03:10.562Z,11.18
2023-01-05T06:04:09.904Z,11.17
2023-01-05T06:05:09.934Z,11.26
2023-01-05T06:06:09.967Z,11.26
2023-01-05T06:07:09.955Z,11.18
2023-01-05T06:08:09.839Z,11.17
2023-01-05T06:09:10.275Z,11.18
2023-01-05T06:10:10.261Z,11.18
2023-01-05T06:11:10.109Z,11.17
2023-01-05T06:12:10.253Z,11.12
2023-01-05T06:13:09.797Z,11.22
2023-01-05T06:14:09.981Z,11.19
2023-01-05T06:15:09.819Z,11.14
2023-01-05T06:16:10.262Z,11.12
2023-01-05T06:17:09.908Z,11.19
2023-01-05T06:18:10.169Z,11.15
2023-01-05T06:19:10.130Z,11.11
2023-01-05T06:20:10.256Z,11.17
2023-01-05T06:21:10.195Z,11.18
2023-01-05T06:22:10.192Z,11.12
2023-01-05T06:23:09.992Z,11.12
2023-01-05T06:24:09.971Z,11.15
2023-01-05T06:25:10.233Z,11.1
2023-01-05T06:26:10.030Z,11.12
2023-01-05T06:27:10.267Z,11.22
2023-01-05T06:28:10.283Z,11.12
2023-01-05T06:29:10.302Z,11.18
2023-01-05T06:30:10.335Z,11.18
2023-01-05T06:31:10.699Z,11.12
2023-01-05T06:32:10.373Z,11.12
2023-01-05T06:33:10.426Z,11.19
2023-01-05T06:34:10.503Z,11.17
2023-01-05T06:35:10.140Z,11.11
2023-01-05T06:36:10.418Z,11.18
2023-01-05T06:37:10.430Z,11.12
2023-01-05T06:38:10.201Z,11.18
2023-01-05T06:39:10.243Z,11.14
2023-01-05T06:40:10.212Z,11.17
2023-01-05T06:41:10.498Z,11.19
2023-01-05T06:42:10.523Z,11.19
2023-01-05T06:43:10.518Z,11.15
2023-01-05T06:44:10.588Z,11.08
2023-01-05T06:45:10.297Z,11.15
2023-01-05T06:46:10.753Z,11.14
2023-01-05T06:47:10.606Z,11.08
2023-01-05T06:48:10.631Z,11.17
2023-01-05T06:49:10.667Z,11.12
2023-01-05T06:50:10.810Z,11.14
2023-01-05T06:51:10.654Z,11.14
2023-01-05T06:52:19.019Z,11.1
2023-01-05T06:53:10.711Z,11.14
2023-01-05T06:54:10.729Z,11.1
2023-01-05T06:55:10.469Z,11.11
2023-01-05T06:56:10.726Z,11.15
2023-01-05T06:57:10.529Z,11.19
2023-01-05T06:58:10.505Z,11.14
2023-01-05T06:59:10.793Z,11.12
2023-01-05T07:00:10.809Z,11.11
2023-01-05T07:01:11.229Z,11.11
2023-01-05T07:02:11.168Z,11.15
2023-01-05T07:03:10.597Z,11.15
2023-01-05T07:04:11.151Z,11.15
2023-01-05T07:05:10.680Z,11.15
2023-01-05T07:06:17.287Z,11.15
2023-01-05T07:07:10.943Z,11.17
2023-01-05T07:08:10.966Z,11.15
2023-01-05T07:09:10.934Z,11.19
2023-01-05T07:10:10.990Z,11.15
2023-01-05T07:11:10.970Z,11.17
2023-01-05T07:12:10.726Z,11.1
2023-01-05T07:13:11.029Z,11.12
2023-01-05T07:14:11.027Z,11.17
2023-01-05T07:15:10.887Z,11.15
2023-01-05T07:16:11.281Z,11.18
2023-01-05T07:17:11.063Z,11.15
2023-01-05T07:18:11.093Z,11.15
2023-01-05T07:19:10.832Z,11.18
2023-01-05T07:20:10.854Z,11.12
2023-01-05T07:21:11.179Z,11.1
2023-01-05T07:22:11.186Z,11.19
2023-01-05T07:23:11.175Z,11.19
2023-01-05T07:24:11.204Z,11.22
2023-01-05T07:25:10.670Z,11.22
2023-01-05T07:26:11.004Z,11.26
2023-01-05T07:27:14.576Z,11.19
2023-01-05T07:28:10.991Z,11.14
2023-01-05T07:29:11.273Z,11.23
2023-01-05T07:30:11.319Z,11.19
2023-01-05T07:31:11.540Z,11.15
2023-01-05T07:32:11.528Z,11.19
2023-01-05T07:33:11.328Z,11.22
2023-01-05T07:34:11.089Z,11.17
2023-01-05T07:35:11.353Z,11.11
2023-01-05T07:36:11.385Z,11.22
2023-01-05T07:37:11.464Z,11.22
2023-01-05T07:38:11.487Z,11.19
2023-01-05T07:39:11.196Z,11.17
2023-01-05T07:40:11.450Z,11.18
2023-01-05T07:41:11.447Z,11.19
2023-01-05T07:42:11.470Z,11.14
2023-01-05T07:43:11.269Z,11.22
2023-01-05T07:44:11.241Z,11.22
2023-01-05T07:45:11.250Z,11.15
2023-01-05T07:46:11.846Z,11.14
2023-01-05T07:47:11.308Z,11.11
2023-01-05T07:48:11.304Z,11.19
2023-01-05T07:49:11.578Z,11.18
2023-01-05T07:50:11.350Z,11.1
2023-01-05T07:51:11.345Z,11.1
2023-01-05T07:52:11.376Z,11.1
2023-01-05T07:53:11.688Z,11.1
2023-01-05T07:54:11.669Z,11.14
2023-01-05T07:55:11.419Z,11.14
2023-01-05T07:56:11.697Z,11.22
2023-01-05T07:57:11.723Z,11.12
2023-01-05T07:58:11.729Z,11.11
2023-01-05T07:59:11.470Z,11.11
2023-01-05T08:00:11.774Z,11.08
2023-01-05T08:01:12.263Z,11.14
2023-01-05T08:02:12.486Z,11.14
2023-01-05T08:03:11.807Z,11.15
2023-01-05T08:04:12.049Z,11.18
2023-01-05T08:05:11.584Z,11.17
2023-01-05T08:06:11.871Z,11.15
2023-01-05T08:07:11.858Z,11.23
2023-01-05T08:08:11.616Z,11.15
2023-01-05T08:09:11.956Z,11.18
2023-01-05T08:10:11.955Z,11.15
2023-01-05T08:11:11.687Z,11.22
2023-01-05T08:12:11.679Z,11.12
2023-01-05T08:13:11.708Z,11.19
2023-01-05T08:14:11.995Z,11.15
2023-01-05T08:15:11.755Z,11.17
2023-01-05T08:16:12.249Z,11.15
2023-01-05T08:17:11.778Z,11.17
2023-01-05T08:18:11.787Z,11.12
2023-01-05T08:19:16.156Z,11.12
2023-01-05T08:20:12.073Z,11.12
2023-01-05T08:21:12.124Z,11.14
2023-01-05T08:22:12.105Z,11.15
2023-01-05T08:23:12.129Z,11.22
2023-01-05T08:24:11.920Z,11.1
2023-01-05T08:25:12.215Z,11.14
2023-01-05T08:26:12.196Z,11.14
2023-01-05T08:27:12.459Z,11.12
2023-01-05T08:28:12.201Z,11.18
2023-01-05T08:29:12.211Z,11.11
2023-01-05T08:30:12.266Z,11.1
2023-01-05T08:31:12.386Z,11.12
2023-01-05T08:32:12.391Z,11.19
2023-01-05T08:33:11.757Z,11.12
2023-01-05T08:34:12.333Z,11.15
2023-01-05T08:35:12.317Z,11.11
2023-01-05T08:36:12.321Z,11.1
2023-01-05T08:37:12.333Z,11.18
2023-01-05T08:38:12.360Z,11.12
2023-01-05T08:39:12.130Z,11.08
2023-01-05T08:40:12.415Z,11.11
2023-01-05T08:41:12.449Z,11.14
2023-01-05T08:42:12.200Z,11.11
2023-01-05T08:43:12.200Z,11.11
2023-01-05T08:44:12.468Z,11.19
2023-01-05T08:45:12.491Z,11.11
2023-01-05T08:46:12.766Z,11.1
2023-01-05T08:47:12.503Z,11.17
2023-01-05T08:48:12.536Z,11.12
2023-01-05T08:49:12.192Z,11.15
2023-01-05T08:50:12.564Z,11.11
2023-01-05T08:51:12.552Z,11.12
2023-01-05T08:52:12.581Z,11.11
2023-01-05T08:53:12.609Z,11.15
2023-01-05T08:54:12.628Z,11.23
2023-01-05T08:55:12.639Z,11.18
2023-01-05T08:56:12.650Z,11.1
2023-01-05T08:57:12.757Z,11.15
2023-01-05T08:58:12.568Z,11.19
2023-01-05T08:59:12.709Z,11.15
2023-01-05T09:00:12.706Z,11.12
2023-01-05T09:01:13.273Z,11.12
2023-01-05T09:02:13.346Z,11.17
2023-01-05T09:03:13.315Z,11.14
2023-01-05T09:04:12.272Z,11.14
2023-01-05T09:05:12.267Z,11.14
2023-01-05T09:06:12.959Z,11.11
2023-01-05T09:07:12.995Z,11.1
2023-01-05T09:08:12.599Z,11.15
2023-01-05T09:09:12.877Z,11.11
2023-01-05T09:10:12.959Z,11.17
2023-01-05T09:11:12.932Z,11.11
2023-01-05T09:12:12.917Z,11.15
2023-01-05T09:13:12.973Z,11.1
2023-01-05T09:14:12.984Z,11.23
2023-01-05T09:15:12.710Z,11.12
2023-01-05T09:16:13.034Z,11.14
2023-01-05T09:17:14.181Z,11.11
2023-01-05T09:18:13.067Z,11.14
2023-01-05T09:19:12.988Z,11.12
2023-01-05T09:20:13.032Z,11.12
2023-01-05T09:21:12.908Z,11.14
2023-01-05T09:22:13.072Z,11.11
2023-01-05T09:23:13.097Z,11.11
2023-01-05T09:24:13.327Z,11.1
2023-01-05T09:25:13.125Z,11.12
2023-01-05T09:26:13.111Z,11.14
2023-01-05T09:27:13.188Z,11.1
2023-01-05T09:28:13.154Z,11.11
2023-01-05T09:29:13.284Z,11.11
2023-01-05T09:30:13.406Z,11.1
2023-01-05T09:31:13.542Z,11.14
2023-01-05T09:32:13.236Z,11.1
2023-01-05T09:33:13.230Z,11.11
2023-01-05T09:34:13.249Z,11.12
2023-01-05T09:35:13.271Z,11.14
2023-01-05T09:36:13.265Z,11.17
2023-01-05T09:37:13.309Z,11.1
2023-01-05T09:38:13.304Z,11.14
2023-01-05T09:39:13.332Z,11.08
2023-01-05T09:40:13.358Z,11.12
2023-01-05T09:41:13.364Z,11.14
2023-01-05T09:42:13.384Z,11.08
2023-01-05T09:43:13.404Z,11.1
2023-01-05T09:44:13.421Z,11.11
2023-01-05T09:45:13.432Z,11.1
2023-01-05T09:46:13.755Z,11.08
2023-01-05T09:47:13.491Z,11.12
2023-01-05T09:48:13.224Z,11.19
2023-01-05T09:49:13.500Z,11.15
2023-01-05T09:50:13.520Z,11.14
2023-01-05T09:51:12.994Z,11.12
2023-01-05T09:52:13.549Z,11.17
2023-01-05T09:53:13.287Z,11.14
2023-01-05T09:54:13.351Z,11.12
2023-01-05T09:55:13.592Z,11.1
2023-01-05T09:56:13.737Z,11.14
2023-01-05T09:57:16.075Z,11.22
2023-01-05T09:58:15.479Z,11.12
2023-01-05T09:59:15.493Z,11.15
2023-01-05T10:00:15.738Z,11.1
2023-01-05T10:01:15.744Z,11.22
2023-01-05T10:02:15.430Z,11.1
2023-01-05T10:04:04.480Z,11.17
2023-01-05T10:04:15.982Z,11.15
2023-01-05T10:05:15.851Z,11.15
2023-01-05T10:06:15.625Z,11.1
2023-01-05T10:07:15.364Z,11.15
2023-01-05T10:08:15.623Z,11.12
2023-01-05T10:09:15.803Z,11.14
2023-01-05T10:10:15.705Z,11.12
2023-01-05T10:11:15.444Z,11.15
2023-01-05T10:12:15.702Z,11.14
2023-01-05T10:13:15.457Z,11.15
2023-01-05T10:14:15.737Z,11.12
2023-01-05T10:15:15.735Z,11.19
2023-01-05T10:16:16.580Z,11.17
2023-01-05T10:17:46.415Z,11.14
2023-01-05T10:18:15.909Z,11.15
2023-01-05T10:19:15.551Z,11.12
2023-01-05T10:20:15.828Z,11.18
2023-01-05T10:21:16.195Z,11.15
2023-01-05T10:22:15.862Z,11.12
2023-01-05T10:23:15.610Z,11.08
2023-01-05T10:24:15.897Z,11.1
2023-01-05T10:25:15.950Z,11.12
2023-01-05T10:26:15.963Z,11.11
2023-01-05T10:27:32.054Z,11.11
2023-01-05T10:28:16.140Z,11.12
2023-01-05T10:29:15.709Z,11.18
2023-01-05T10:30:15.987Z,11.14
2023-01-05T10:31:16.681Z,11.22
2023-01-05T10:32:16.016Z,11.23
2023-01-05T10:33:53.009Z,11.14
2023-01-05T10:34:21.106Z,11.19
2023-01-05T10:36:12.208Z,11.15
2023-01-05T10:37:13.961Z,11.19
2023-01-05T10:38:11.858Z,11.18
2023-01-05T10:39:11.889Z,11.23
2023-01-05T10:40:11.895Z,11.12
2023-01-05T10:41:11.914Z,11.18
2023-01-05T10:42:11.653Z,11.12
2023-01-05T10:43:11.928Z,11.17
2023-01-05T10:44:11.680Z,11.12
2023-01-05T10:45:11.447Z,11.15
2023-01-05T10:46:52.094Z,11.22
2023-01-05T10:47:12.205Z,11.17
2023-01-05T10:48:12.234Z,11.15
2023-01-05T10:49:12.040Z,11.11
2023-01-05T10:50:12.141Z,11.22
2023-01-05T10:51:12.072Z,11.18
2023-01-05T10:52:12.049Z,11.17
2023-01-05T10:53:12.099Z,11.15
2023-01-05T10:54:12.094Z,11.19
2023-01-05T10:55:12.114Z,11.25
2023-01-05T10:56:11.902Z,11.19
2023-01-05T10:57:11.883Z,11.18
2023-01-05T10:58:12.161Z,11.19
2023-01-05T10:59:12.192Z,11.15
2023-01-05T11:00:12.302Z,11.17
2023-01-05T11:01:12.794Z,11.17
2023-01-05T11:02:12.704Z,11.23
2023-01-05T11:03:11.984Z,11.18
2023-01-05T11:04:42.612Z,11.17
2023-01-05T11:05:12.134Z,11.25
2023-01-05T11:06:12.421Z,11.17
2023-01-05T11:07:11.824Z,11.17
2023-01-05T11:08:12.350Z,11.19
2023-01-05T11:09:14.312Z,11.17
2023-01-05T11:10:12.342Z,11.26
2023-01-05T11:11:12.104Z,11.25
2023-01-05T11:12:12.393Z,11.22
2023-01-05T11:13:12.454Z,11.35
2023-01-05T11:14:12.410Z,11.32
2023-01-05T11:15:12.167Z,11.18
2023-01-05T11:16:12.090Z,11.22
2023-01-05T11:17:12.248Z,11.22
2023-01-05T11:18:12.498Z,11.26
2023-01-05T11:19:12.253Z,11.25
2023-01-05T11:20:12.791Z,11.27
2023-01-05T11:21:12.549Z,11.23
2023-01-05T11:22:12.675Z,11.27
2023-01-05T11:23:12.321Z,11.3
2023-01-05T11:24:12.581Z,11.35
2023-01-05T11:25:12.334Z,11.27
2023-01-05T11:26:12.615Z,11.36
2023-01-05T11:27:12.357Z,11.32
2023-01-05T11:28:12.662Z,11.36
2023-01-05T11:29:12.696Z,11.25
2023-01-05T11:30:12.694Z,11.33
2023-01-05T11:31:12.633Z,11.32
2023-01-05T11:32:12.711Z,11.3
2023-01-05T11:33:26.808Z,11.33
2023-01-05T11:34:12.999Z,11.3
2023-01-05T11:35:12.750Z,11.3
2023-01-05T11:36:13.036Z,11.3
2023-01-05T11:37:13.638Z,11.33
2023-01-05T11:38:12.922Z,11.32
2023-01-05T11:39:12.571Z,11.4
2023-01-05T11:40:12.571Z,11.3
2023-01-05T11:41:12.619Z,11.3
2023-01-05T11:42:12.623Z,11.3
2023-01-05T11:43:13.034Z,11.26
2023-01-05T11:44:12.644Z,11.36
2023-01-05T11:45:12.680Z,11.29
2023-01-05T11:46:12.941Z,11.36
2023-01-05T11:47:12.939Z,11.33
2023-01-05T11:48:13.010Z,11.32
2023-01-05T11:49:12.724Z,11.36
2023-01-05T11:50:14.804Z,11.36
2023-01-05T11:51:13.011Z,11.27
2023-01-05T11:52:13.125Z,11.36
2023-01-05T11:53:12.776Z,11.32
2023-01-05T11:54:13.185Z,11.35
2023-01-05T11:55:13.075Z,11.3
2023-01-05T11:56:13.094Z,11.3
2023-01-05T11:57:13.109Z,11.29
2023-01-05T11:58:13.143Z,11.35
2023-01-05T11:59:13.130Z,11.33
2023-01-05T12:00:13.192Z,11.35
2023-01-05T12:01:13.386Z,11.35
2023-01-05T12:02:13.174Z,11.36
2023-01-05T12:03:13.463Z,11.35
2023-01-05T12:04:13.541Z,11.33
2023-01-05T12:05:12.979Z,11.36
2023-01-05T12:06:12.728Z,11.36
2023-01-05T12:07:13.271Z,11.37
2023-01-05T12:08:13.524Z,11.27
2023-01-05T12:09:13.202Z,11.33
2023-01-05T12:10:13.213Z,11.41
2023-01-05T12:11:13.337Z,11.35
2023-01-05T12:12:13.336Z,11.33
2023-01-05T12:13:13.356Z,11.35
2023-01-05T12:14:13.120Z,11.32
2023-01-05T12:15:13.388Z,11.3
2023-01-05T12:16:13.622Z,11.41
2023-01-05T12:17:13.437Z,11.35
2023-01-05T12:18:13.218Z,11.32
2023-01-05T12:19:13.455Z,11.37
2023-01-05T12:20:13.486Z,11.43
2023-01-05T12:21:13.266Z,11.37
2023-01-05T12:22:13.548Z,11.35
2023-01-05T12:23:13.516Z,11.41
2023-01-05T12:24:13.803Z,11.35
2023-01-05T12:25:13.553Z,11.37
2023-01-05T12:26:13.412Z,11.37
2023-01-05T12:27:13.587Z,11.44
2023-01-05T12:28:19.704Z,11.37
2023-01-05T12:34:18.822Z,11.33
2023-01-05T12:35:16.522Z,11.29
2023-01-05T12:36:16.565Z,11.37
2023-01-05T12:37:16.585Z,11.37
2023-01-05T12:38:16.592Z,11.41
2023-01-05T12:39:16.848Z,11.43
2023-01-05T12:40:16.652Z,11.36
2023-01-05T12:41:16.846Z,11.37
2023-01-05T12:42:16.677Z,11.41
2023-01-05T12:43:16.651Z,11.37
2023-01-05T12:44:16.688Z,11.37
2023-01-05T12:45:16.684Z,11.41
2023-01-05T12:46:16.837Z,11.37
2023-01-05T12:47:16.734Z,11.36
2023-01-05T12:48:16.788Z,11.41
2023-01-05T12:49:16.760Z,11.45
2023-01-05T12:50:16.767Z,11.37
2023-01-05T12:51:16.923Z,11.36
2023-01-05T12:52:16.836Z,11.37
2023-01-05T12:53:16.547Z,11.43
2023-01-05T12:54:16.594Z,11.32
2023-01-05T12:55:17.140Z,11.36
2023-01-05T12:56:16.918Z,11.4
2023-01-05T12:57:17.094Z,11.4
2023-01-05T12:58:16.977Z,11.32
2023-01-05T12:59:17.050Z,11.4
2023-01-05T13:00:16.660Z,11.35